createdAt,value
2018-12-02T16:21:47.686Z,4.60
2018-12-02T16:22:47.547Z,4.58
2018-12-02T16:23:47.460Z,4.67
2018-12-02T16:24:47.374Z,4.58
2018-12-02T16:25:47.295Z,4.62
2018-12-02T16:26:47.201Z,4.66
2018-12-02T16:27:47.117Z,4.67
2018-12-02T16:28:47.031Z,4.66
2018-12-02T16:29:46.943Z,4.67
2018-12-02T16:30:46.858Z,4.60
2018-12-02T16:31:46.773Z,4.63
2018-12-02T16:32:46.689Z,4.67
2018-12-02T16:33:46.599Z,4.68
2018-12-02T16:34:46.514Z,4.78
2018-12-02T16:35:46.429Z,4.67
2018-12-02T16:36:46.344Z,4.63
2018-12-02T16:37:46.260Z,4.77
2018-12-02T16:38:46.174Z,4.68
2018-12-02T16:39:46.085Z,4.62
2018-12-02T16:40:46.007Z,4.63
2018-12-02T16:41:45.915Z,4.62
2018-12-02T16:42:45.827Z,4.66
2018-12-02T16:43:45.743Z,4.67
2018-12-02T16:44:45.657Z,4.73
2018-12-02T16:45:45.573Z,4.66
2018-12-02T16:46:45.484Z,4.66
2018-12-02T16:47:45.399Z,4.63
2018-12-02T16:48:45.314Z,4.68
2018-12-02T16:49:45.229Z,4.73
2018-12-02T16:50:45.156Z,4.71
2018-12-02T16:51:45.055Z,4.63
2018-12-02T16:52:44.972Z,4.74
2018-12-02T16:53:44.884Z,4.67
2018-12-02T16:54:44.800Z,4.73
2018-12-02T16:55:44.712Z,4.66
2018-12-02T16:56:44.631Z,4.63
2018-12-02T16:57:44.566Z,4.66
2018-12-02T16:58:44.454Z,4.66
2018-12-02T16:59:44.369Z,4.70
2018-12-02T17:00:44.283Z,4.60
2018-12-02T17:01:44.198Z,4.71
2018-12-02T17:02:44.115Z,4.75
2018-12-02T17:03:44.025Z,4.84
2018-12-02T17:04:43.940Z,4.84
2018-12-02T17:05:43.854Z,4.71
2018-12-02T17:06:43.769Z,4.74
2018-12-02T17:07:43.690Z,4.78
2018-12-02T17:08:43.615Z,4.80
2018-12-02T17:09:43.510Z,4.73
2018-12-02T17:10:50.528Z,4.82
2018-12-02T17:11:43.341Z,4.74
2018-12-02T17:12:43.265Z,4.75
2018-12-02T17:13:43.165Z,4.75
2018-12-02T17:14:43.136Z,4.70
2018-12-02T17:15:42.997Z,4.77
2018-12-02T17:16:42.909Z,4.84
2018-12-02T17:17:42.822Z,4.71
2018-12-02T17:18:42.740Z,4.75
2018-12-02T17:19:42.655Z,4.78
2018-12-02T17:20:42.567Z,4.75
2018-12-02T17:21:42.481Z,4.82
2018-12-02T17:22:42.393Z,4.84
2018-12-02T17:23:42.310Z,4.82
2018-12-02T17:24:42.223Z,4.84
2018-12-02T17:25:42.146Z,4.87
2018-12-02T17:26:42.051Z,4.86
2018-12-02T17:27:41.965Z,4.87
2018-12-02T17:28:41.884Z,4.82
2018-12-02T17:29:41.793Z,4.86
2018-12-02T17:30:41.709Z,4.86
2018-12-02T17:31:41.622Z,4.90
2018-12-02T17:32:41.537Z,4.86
2018-12-02T17:33:41.451Z,4.80
2018-12-02T17:34:41.427Z,4.87
2018-12-02T17:35:41.283Z,4.89
2018-12-02T17:36:41.255Z,4.78
2018-12-02T17:37:41.107Z,4.84
2018-12-02T17:38:41.023Z,4.82
2018-12-02T17:39:40.939Z,4.80
2018-12-02T17:40:40.872Z,4.87
2018-12-02T17:41:40.766Z,4.96
2018-12-02T17:42:40.679Z,4.89
2018-12-02T17:43:40.595Z,4.82
2018-12-02T17:44:40.507Z,4.84
2018-12-02T17:45:40.425Z,4.89
2018-12-02T17:46:40.339Z,4.89
2018-12-02T17:47:40.251Z,4.92
2018-12-02T17:48:40.169Z,4.86
2018-12-02T17:49:40.080Z,4.86
2018-12-02T17:50:39.994Z,4.87
2018-12-02T17:51:39.918Z,4.89
2018-12-02T17:52:39.824Z,4.87
2018-12-02T17:53:39.737Z,4.92
2018-12-02T17:54:39.652Z,4.94
2018-12-02T17:55:39.566Z,4.90
2018-12-02T17:56:39.484Z,4.90
2018-12-02T17:57:39.394Z,4.99
2018-12-02T17:58:39.309Z,4.99
2018-12-02T17:59:39.228Z,4.93
2018-12-02T18:00:39.140Z,5.04
2018-12-02T18:01:39.053Z,4.97
2018-12-02T18:02:38.970Z,5.02
2018-12-02T18:03:38.882Z,4.97
2018-12-02T18:04:38.857Z,4.96
2018-12-02T18:05:38.710Z,5.00
2018-12-02T18:06:38.625Z,4.97
2018-12-02T18:07:38.542Z,4.93
2018-12-02T18:08:38.453Z,4.97
2018-12-02T18:09:38.372Z,4.92
2018-12-02T18:10:38.280Z,4.96
2018-12-02T18:11:38.195Z,4.99
2018-12-02T18:12:38.110Z,5.05
2018-12-02T18:13:38.023Z,5.07
2018-12-02T18:14:37.941Z,5.02
2018-12-02T18:15:37.853Z,5.07
2018-12-02T18:16:37.773Z,5.00
2018-12-02T18:17:37.684Z,5.04
2018-12-02T18:18:37.596Z,5.02
2018-12-02T18:19:37.552Z,5.08
2018-12-02T18:20:37.491Z,5.07
2018-12-02T18:21:37.339Z,5.02
2018-12-02T18:22:37.255Z,5.07
2018-12-02T18:23:37.168Z,5.10
2018-12-02T18:24:37.083Z,5.10
2018-12-02T18:25:37.030Z,5.11
2018-12-02T18:26:36.959Z,5.10
2018-12-02T18:27:36.874Z,5.08
2018-12-02T18:28:36.780Z,5.10
2018-12-02T18:29:36.678Z,5.17
2018-12-02T18:30:36.625Z,5.11
2018-12-02T18:31:36.562Z,5.11
2018-12-02T18:32:36.439Z,5.14
2018-12-02T18:33:36.314Z,5.10
2018-12-02T18:34:36.234Z,5.10
2018-12-02T18:35:36.139Z,5.14
2018-12-02T18:36:36.056Z,5.17
2018-12-02T18:37:36.011Z,5.11
2018-12-02T18:38:35.883Z,5.14
2018-12-02T18:39:35.842Z,5.14
2018-12-02T18:40:35.711Z,5.18
2018-12-02T18:41:35.632Z,5.14
2018-12-02T18:42:35.540Z,5.20
2018-12-02T18:43:35.466Z,5.20
2018-12-02T18:44:35.386Z,5.23
2018-12-02T18:45:35.285Z,5.20
2018-12-02T18:46:35.200Z,5.21
2018-12-02T18:47:35.113Z,5.28
2018-12-02T18:48:35.033Z,5.25
2018-12-02T18:49:34.944Z,5.21
2018-12-02T18:50:34.863Z,5.29
2018-12-02T18:51:34.771Z,5.20
2018-12-02T18:52:34.687Z,5.23
2018-12-02T18:53:34.604Z,5.23
2018-12-02T18:54:34.526Z,5.28
2018-12-02T18:55:34.431Z,5.21
2018-12-02T18:56:34.348Z,5.25
2018-12-02T18:57:34.326Z,5.26
2018-12-02T18:58:34.227Z,5.26
2018-12-02T18:59:34.089Z,5.32
2018-12-02T19:00:34.017Z,5.29
2018-12-02T19:01:33.933Z,5.29
2018-12-02T19:02:33.840Z,5.35
2018-12-02T19:03:33.766Z,5.30
2018-12-02T19:04:33.663Z,5.29
2018-12-02T19:05:33.588Z,5.30
2018-12-02T19:06:33.516Z,5.32
2018-12-02T19:07:33.408Z,5.28
2018-12-02T19:08:33.319Z,5.33
2018-12-02T19:09:33.235Z,5.32
2018-12-02T19:10:33.150Z,5.38
2018-12-02T19:11:33.066Z,5.23
2018-12-02T19:12:32.983Z,5.35
2018-12-02T19:13:32.894Z,5.35
2018-12-02T19:16:56.574Z,5.43
2018-12-02T19:19:39.460Z,5.36
2018-12-02T19:20:39.371Z,5.35
2018-12-02T19:22:44.222Z,5.35
2018-12-02T19:23:44.096Z,5.32
2018-12-02T19:24:44.006Z,5.29
2018-12-02T19:25:43.925Z,5.46
2018-12-02T19:26:43.836Z,5.39
2018-12-02T19:27:43.750Z,5.48
2018-12-02T19:28:43.663Z,5.32
2018-12-02T19:29:43.604Z,5.30
2018-12-02T19:30:43.490Z,5.30
2018-12-02T19:31:43.412Z,5.33
2018-12-02T19:32:43.323Z,5.35
2018-12-02T19:33:43.243Z,5.30
2018-12-02T19:34:43.152Z,5.32
2018-12-02T19:35:43.069Z,5.44
2018-12-02T19:36:42.981Z,5.35
2018-12-02T19:37:42.895Z,5.35
2018-12-02T19:38:42.818Z,5.38
2018-12-02T19:39:42.727Z,5.47
2018-12-02T19:40:42.639Z,5.32
2018-12-02T19:41:42.562Z,5.44
2018-12-02T19:42:42.480Z,5.48
2018-12-02T19:43:42.389Z,5.38
2018-12-02T19:44:42.299Z,5.44
2018-12-02T19:45:42.217Z,5.41
2018-12-02T19:46:42.128Z,5.46
2018-12-02T19:47:42.047Z,5.43
2018-12-02T19:48:41.958Z,5.43
2018-12-02T19:49:41.876Z,5.43
2018-12-02T19:50:41.787Z,5.44
2018-12-02T19:51:41.705Z,5.51
2018-12-02T19:52:41.617Z,5.50
2018-12-02T19:53:41.533Z,5.51
2018-12-02T19:54:41.451Z,5.50
2018-12-02T19:55:41.364Z,5.51
2018-12-02T19:56:41.279Z,5.51
2018-12-02T19:57:41.195Z,5.51
2018-12-02T19:58:41.108Z,5.56
2018-12-02T19:59:41.022Z,5.53
2018-12-02T20:00:40.935Z,5.56
2018-12-02T20:01:40.855Z,5.48
2018-12-02T20:02:40.768Z,5.56
2018-12-02T20:03:40.682Z,5.54
2018-12-02T20:04:40.597Z,5.54
2018-12-02T20:05:40.595Z,5.51
2018-12-02T20:06:40.429Z,5.56
2018-12-02T20:07:40.355Z,5.50
2018-12-02T20:08:40.263Z,5.54
2018-12-02T20:09:40.172Z,5.54
2018-12-02T20:10:40.111Z,5.54
2018-12-02T20:11:40.003Z,5.56
2018-12-02T20:12:39.930Z,5.65
2018-12-02T20:13:39.831Z,5.54
2018-12-02T20:14:39.747Z,5.51
2018-12-02T20:15:39.659Z,5.56
2018-12-02T20:16:39.576Z,5.59
2018-12-02T20:17:39.494Z,5.62
2018-12-02T20:18:39.406Z,5.65
2018-12-02T20:19:39.322Z,5.59
2018-12-02T20:20:39.235Z,5.56
2018-12-02T20:21:39.152Z,5.54
2018-12-02T20:22:39.096Z,5.59
2018-12-02T20:23:38.980Z,5.59
2018-12-02T20:24:38.900Z,5.59
2018-12-02T20:25:38.812Z,5.56
2018-12-02T20:26:38.727Z,5.68
2018-12-02T20:27:38.643Z,5.56
2018-12-02T20:28:38.560Z,5.57
2018-12-02T20:29:38.471Z,5.54
2018-12-02T20:30:38.386Z,5.53
2018-12-02T20:31:38.301Z,5.61
2018-12-02T20:32:38.218Z,5.61
2018-12-02T20:33:38.133Z,5.66
2018-12-02T20:34:38.049Z,5.64
2018-12-02T20:35:37.964Z,5.71
2018-12-02T20:36:37.902Z,5.59
2018-12-02T20:37:37.792Z,5.66
2018-12-02T20:38:37.710Z,5.61
2018-12-02T20:39:37.623Z,5.62
2018-12-02T20:40:37.539Z,5.62
2018-12-02T20:41:37.459Z,5.69
2018-12-02T20:42:37.368Z,5.66
2018-12-02T20:43:37.286Z,5.61
2018-12-02T20:44:37.203Z,5.59
2018-12-02T20:45:37.115Z,5.66
2018-12-02T20:46:37.045Z,5.59
2018-12-02T20:47:36.945Z,5.68
2018-12-02T20:48:36.859Z,5.62
2018-12-02T20:49:36.776Z,5.56
2018-12-02T20:50:36.693Z,5.69
2018-12-02T20:51:36.609Z,5.69
2018-12-02T20:52:36.519Z,5.68
2018-12-02T20:53:36.436Z,5.68
2018-12-02T20:54:36.349Z,5.69
2018-12-02T20:55:36.266Z,5.69
2018-12-02T20:56:36.186Z,5.71
2018-12-02T20:57:36.096Z,5.72
2018-12-02T20:58:36.010Z,5.75
2018-12-02T20:59:35.938Z,5.71
2018-12-02T21:00:35.844Z,5.76
2018-12-02T21:01:35.769Z,5.71
2018-12-02T21:02:35.671Z,5.76
2018-12-02T21:03:35.585Z,5.71
2018-12-02T21:04:35.504Z,5.79
2018-12-02T21:05:35.448Z,5.72
2018-12-02T21:06:35.336Z,5.73
2018-12-02T21:07:35.247Z,5.72
2018-12-02T21:08:35.164Z,5.79
2018-12-02T21:09:35.078Z,5.76
2018-12-02T21:10:34.991Z,5.79
2018-12-02T21:11:40.336Z,5.73
2018-12-02T21:12:34.823Z,5.73
2018-12-02T21:13:34.739Z,5.76
2018-12-02T21:14:34.653Z,5.73
2018-12-02T21:15:34.571Z,5.69
2018-12-02T21:16:34.489Z,5.75
2018-12-02T21:17:34.402Z,5.76
2018-12-02T21:18:34.314Z,5.72
2018-12-02T21:19:34.234Z,5.73
2018-12-02T21:20:34.146Z,5.75
2018-12-02T21:21:37.123Z,5.76
2018-12-02T21:22:33.974Z,5.73
2018-12-02T21:23:33.890Z,5.83
2018-12-02T21:24:33.806Z,5.73
2018-12-02T21:25:33.727Z,5.82
2018-12-02T21:26:33.635Z,5.76
2018-12-02T21:27:33.553Z,5.75
2018-12-02T21:28:33.465Z,5.79
2018-12-02T21:29:33.380Z,5.80
2018-12-02T21:30:33.296Z,5.83
2018-12-02T21:31:33.212Z,5.82
2018-12-02T21:32:33.127Z,5.83
2018-12-02T21:33:33.042Z,5.80
2018-12-02T21:34:32.960Z,5.75
2018-12-02T21:35:32.873Z,5.79
2018-12-02T21:36:32.788Z,5.73
2018-12-02T21:37:32.705Z,5.76
2018-12-02T21:38:32.618Z,5.76
2018-12-02T21:39:32.533Z,5.76
2018-12-02T21:40:32.455Z,5.82
2018-12-02T21:41:32.363Z,5.82
2018-12-02T21:42:32.281Z,5.80
2018-12-02T21:43:32.193Z,5.76
2018-12-02T21:44:32.109Z,5.76
2018-12-02T21:45:32.026Z,5.73
2018-12-02T21:46:31.938Z,5.80
2018-12-02T21:47:31.861Z,5.76
2018-12-02T21:48:31.773Z,5.82
2018-12-02T21:49:31.687Z,5.82
2018-12-02T21:50:31.602Z,5.76
2018-12-02T21:51:31.515Z,5.79
2018-12-02T21:52:31.431Z,5.80
2018-12-02T21:53:31.347Z,5.79
2018-12-02T21:54:31.267Z,5.76
2018-12-02T21:55:31.178Z,5.73
2018-12-02T21:56:31.094Z,5.79
2018-12-02T21:57:31.009Z,5.75
2018-12-02T21:58:30.921Z,5.86
2018-12-02T21:59:30.837Z,5.80
2018-12-02T22:00:30.753Z,5.84
2018-12-02T22:01:30.672Z,5.76
2018-12-02T22:02:30.584Z,5.82
2018-12-02T22:03:30.500Z,5.83
2018-12-02T22:04:30.414Z,5.84
2018-12-02T22:05:30.332Z,5.79
2018-12-02T22:06:30.244Z,5.79
2018-12-02T22:07:30.160Z,5.87
2018-12-02T22:08:30.075Z,5.89
2018-12-02T22:09:29.990Z,5.87
2018-12-02T22:10:30.140Z,5.79
2018-12-02T22:11:29.820Z,5.86
2018-12-02T22:12:29.735Z,5.86
2018-12-02T22:13:29.652Z,5.75
2018-12-02T22:14:29.595Z,5.90
2018-12-02T22:15:29.508Z,5.80
2018-12-02T22:16:29.413Z,5.84
2018-12-02T22:17:29.324Z,5.79
2018-12-02T22:18:29.263Z,5.82
2018-12-02T22:19:29.185Z,5.87
2018-12-02T22:20:29.064Z,5.76
2018-12-02T22:21:29.012Z,5.86
2018-12-02T22:22:28.984Z,5.84
2018-12-02T22:23:28.816Z,5.87
2018-12-02T22:24:28.719Z,5.86
2018-12-02T22:25:28.634Z,5.90
2018-12-02T22:26:28.551Z,5.87
2018-12-02T22:27:28.469Z,5.86
2018-12-02T22:28:28.383Z,5.90
2018-12-02T22:29:28.301Z,5.87
2018-12-02T22:30:28.210Z,5.79
2018-12-02T22:31:28.126Z,5.89
2018-12-02T22:32:28.059Z,5.83
2018-12-02T22:33:27.956Z,5.86
2018-12-02T22:34:27.873Z,5.87
2018-12-02T22:35:27.786Z,5.87
2018-12-02T22:36:27.702Z,5.86
2018-12-02T22:37:27.618Z,5.87
2018-12-02T22:38:27.532Z,5.86
2018-12-02T22:39:27.448Z,5.86
2018-12-02T22:40:27.395Z,5.89
2018-12-02T22:41:27.281Z,5.89
2018-12-02T22:42:27.196Z,5.91
2018-12-02T22:45:09.696Z,5.91
2018-12-02T22:46:09.564Z,5.91
2018-12-02T22:48:13.412Z,5.93
2018-12-02T22:49:13.281Z,5.84
2018-12-02T22:50:13.194Z,5.91
2018-12-02T22:51:13.109Z,5.87
2018-12-02T22:52:13.165Z,5.86
2018-12-02T22:53:12.942Z,5.94
2018-12-02T22:54:12.857Z,5.90
2018-12-02T22:55:12.769Z,5.87
2018-12-02T22:56:12.692Z,5.91
2018-12-02T22:57:12.604Z,5.91
2018-12-02T22:58:12.518Z,5.91
2018-12-02T22:59:12.431Z,5.97
2018-12-02T23:00:12.346Z,5.94
2018-12-02T23:01:12.262Z,5.86
2018-12-02T23:02:13.294Z,5.89
2018-12-02T23:03:12.091Z,5.93
2018-12-02T23:04:12.011Z,5.93
2018-12-02T23:05:11.978Z,5.91
2018-12-02T23:06:11.838Z,5.89
2018-12-02T23:07:11.753Z,5.90
2018-12-02T23:08:11.668Z,5.99
2018-12-02T23:09:11.584Z,5.94
2018-12-02T23:10:11.498Z,5.98
2018-12-02T23:11:11.413Z,5.93
2018-12-02T23:12:11.328Z,5.91
2018-12-02T23:13:11.248Z,5.99
2018-12-02T23:14:11.159Z,5.94
2018-12-02T23:15:11.075Z,6.05
2018-12-02T23:16:10.989Z,5.97
2018-12-02T23:17:10.904Z,5.99
2018-12-02T23:18:10.819Z,5.97
2018-12-02T23:19:10.736Z,5.97
2018-12-02T23:20:10.651Z,5.97
2018-12-02T23:21:10.565Z,5.97
2018-12-02T23:22:10.482Z,5.94
2018-12-02T23:23:10.398Z,5.94
2018-12-02T23:24:10.311Z,5.97
2018-12-02T23:25:10.226Z,6.09
2018-12-02T23:26:10.142Z,6.02
2018-12-02T23:27:10.058Z,6.04
2018-12-02T23:28:09.975Z,6.07
2018-12-02T23:29:09.889Z,6.04
2018-12-02T23:30:09.803Z,5.99
2018-12-02T23:31:09.717Z,6.04
2018-12-02T23:32:09.634Z,6.11
2018-12-02T23:33:09.549Z,6.08
2018-12-02T23:34:09.465Z,6.08
2018-12-02T23:35:09.382Z,6.11
2018-12-02T23:36:09.299Z,6.05
2018-12-02T23:37:09.211Z,6.14
2018-12-02T23:38:09.125Z,5.98
2018-12-02T23:39:09.042Z,6.12
2018-12-02T23:40:08.958Z,6.09
2018-12-02T23:41:08.872Z,6.05
2018-12-02T23:42:08.790Z,6.11
2018-12-02T23:43:08.704Z,6.04
2018-12-02T23:44:08.617Z,6.09
2018-12-02T23:45:08.535Z,6.12
2018-12-02T23:46:08.450Z,6.11
2018-12-02T23:47:08.368Z,6.07
2018-12-02T23:48:08.280Z,6.01
2018-12-02T23:49:08.196Z,6.09
2018-12-02T23:50:08.111Z,6.09
2018-12-02T23:51:08.026Z,6.07
2018-12-02T23:52:07.944Z,6.11
2018-12-02T23:53:07.858Z,6.04
2018-12-02T23:54:07.772Z,6.04
2018-12-02T23:55:07.692Z,6.14
2018-12-02T23:56:07.603Z,6.09
2018-12-02T23:57:07.520Z,6.12
2018-12-02T23:58:07.442Z,6.16
2018-12-02T23:59:07.348Z,6.05
